EPD57 EGPJ-EGPD
Flight info
| Callsign | EPD57 |
|---|---|
| Flight time | 0h 31m |
| Altitude | 5000 |
| Route | NOVBA DCT ASNUD DCT GLESK |
| Aircraft | BE58/L-SDFGRY/C |
Departure
| Time | 2026-04-26 13:53 |
|---|---|
| Airport | Fife Airport (EGPJ) |
Arrival
| Time | 2026-04-26 14:25 |
|---|---|
| Airport | Aberdeen International Airport (EGPD) |
| Time | Latitude | Longitude | Altitude | Speed | Heading |
|---|---|---|---|---|---|
| 2026-04-26 13:48 | 56.18470 | -3.21773 | 396 ft | 0 kts | 352° |
| 2026-04-26 13:51 | 56.18471 | -3.21774 | 396 ft | 0 kts | 347° |
| 2026-04-26 13:51 | 56.18478 | -3.21784 | 398 ft | 5 kts | 298° |
| 2026-04-26 13:51 | 56.18442 | -3.21842 | 396 ft | 10 kts | 204° |
| 2026-04-26 13:51 | 56.18411 | -3.21847 | 393 ft | 0 kts | 155° |
| 2026-04-26 13:53 | 56.18317 | -3.22071 | 396 ft | 73 kts | 239° |
| 2026-04-26 13:53 | 56.17921 | -3.23279 | 671 ft | 133 kts | 240° |
| 2026-04-26 13:53 | 56.17420 | -3.24836 | 1188 ft | 152 kts | 241° |
| 2026-04-26 13:54 | 56.16923 | -3.26516 | 1818 ft | 153 kts | 244° |
| 2026-04-26 13:54 | 56.16780 | -3.28282 | 2604 ft | 149 kts | 294° |
| 2026-04-26 13:54 | 56.17520 | -3.29573 | 3414 ft | 134 kts | 323° |
| 2026-04-26 13:55 | 56.19081 | -3.31464 | 5095 ft | 117 kts | 336° |
| 2026-04-26 13:55 | 56.19603 | -3.31750 | 5662 ft | 114 kts | 346° |
| 2026-04-26 13:55 | 56.21623 | -3.31917 | 7061 ft | 141 kts | 2° |
| 2026-04-26 13:56 | 56.22633 | -3.31744 | 7362 ft | 162 kts | 6° |
| 2026-04-26 13:56 | 56.23702 | -3.31458 | 7393 ft | 160 kts | 9° |
| 2026-04-26 13:56 | 56.24768 | -3.31017 | 7839 ft | 147 kts | 17° |
| 2026-04-26 13:56 | 56.25677 | -3.30360 | 8452 ft | 133 kts | 23° |
| 2026-04-26 13:57 | 56.26528 | -3.29695 | 8885 ft | 140 kts | 23° |
| 2026-04-26 13:57 | 56.27515 | -3.28970 | 8910 ft | 161 kts | 16° |
| 2026-04-26 13:57 | 56.28541 | -3.28623 | 9430 ft | 148 kts | 12° |
| 2026-04-26 13:57 | 56.29548 | -3.28096 | 9846 ft | 134 kts | 17° |
| 2026-04-26 13:58 | 56.30444 | -3.27603 | 10215 ft | 146 kts | 17° |
| 2026-04-26 13:58 | 56.31471 | -3.26813 | 10011 ft | 176 kts | 27° |
| 2026-04-26 13:58 | 56.32505 | -3.25730 | 10293 ft | 162 kts | 30° |
| 2026-04-26 13:58 | 56.33449 | -3.24703 | 10615 ft | 147 kts | 31° |
| 2026-04-26 13:59 | 56.34331 | -3.23697 | 10939 ft | 146 kts | 33° |
| 2026-04-26 13:59 | 56.35200 | -3.22636 | 11086 ft | 160 kts | 33° |
| 2026-04-26 13:59 | 56.36087 | -3.21576 | 11534 ft | 147 kts | 31° |
| 2026-04-26 14:00 | 56.38748 | -3.19357 | 12743 ft | 145 kts | 24° |
| 2026-04-26 14:00 | 56.39683 | -3.18561 | 13025 ft | 159 kts | 25° |
| 2026-04-26 14:00 | 56.40385 | -3.17952 | 12979 ft | 177 kts | 25° |
| 2026-04-26 14:01 | 56.41933 | -3.16605 | 12999 ft | 189 kts | 25° |
| 2026-04-26 14:01 | 56.43118 | -3.15576 | 13021 ft | 193 kts | 25° |
| 2026-04-26 14:01 | 56.44335 | -3.14508 | 13022 ft | 196 kts | 26° |
| 2026-04-26 14:01 | 56.45551 | -3.13389 | 13027 ft | 197 kts | 26° |
| 2026-04-26 14:02 | 56.46794 | -3.12342 | 13014 ft | 198 kts | 21° |
| 2026-04-26 14:02 | 56.48089 | -3.11516 | 13017 ft | 197 kts | 18° |
| 2026-04-26 14:02 | 56.49378 | -3.10654 | 13015 ft | 197 kts | 22° |
| 2026-04-26 14:02 | 56.50632 | -3.09624 | 13016 ft | 198 kts | 26° |
| 2026-04-26 14:03 | 56.51842 | -3.08445 | 13016 ft | 197 kts | 29° |
| 2026-04-26 14:03 | 56.53046 | -3.07252 | 13013 ft | 198 kts | 27° |
| 2026-04-26 14:03 | 56.54268 | -3.06108 | 13028 ft | 197 kts | 25° |
| 2026-04-26 14:03 | 56.55508 | -3.05054 | 13034 ft | 197 kts | 24° |
| 2026-04-26 14:04 | 56.56769 | -3.04194 | 13030 ft | 195 kts | 9° |
| 2026-04-26 14:04 | 56.58097 | -3.03669 | 13028 ft | 196 kts | 13° |
| 2026-04-26 14:04 | 56.59425 | -3.03126 | 13049 ft | 196 kts | 11° |
| 2026-04-26 14:04 | 56.60766 | -3.02634 | 13048 ft | 196 kts | 10° |
| 2026-04-26 14:05 | 56.62113 | -3.02225 | 13071 ft | 196 kts | 7° |
| 2026-04-26 14:05 | 56.63468 | -3.01939 | 13094 ft | 195 kts | 5° |
| 2026-04-26 14:05 | 56.64822 | -3.01702 | 13103 ft | 196 kts | 5° |
| 2026-04-26 14:05 | 56.66177 | -3.01469 | 13108 ft | 196 kts | 4° |
| 2026-04-26 14:06 | 56.67538 | -3.01407 | 13100 ft | 196 kts | 358° |
| 2026-04-26 14:06 | 56.68900 | -3.01536 | 13095 ft | 196 kts | 1° |
| 2026-04-26 14:06 | 56.70263 | -3.01342 | 13060 ft | 198 kts | 9° |
| 2026-04-26 14:06 | 56.71600 | -3.00759 | 13068 ft | 197 kts | 17° |
| 2026-04-26 14:07 | 56.72877 | -2.99864 | 13090 ft | 196 kts | 25° |
| 2026-04-26 14:07 | 56.74092 | -2.98719 | 13086 ft | 197 kts | 28° |
| 2026-04-26 14:07 | 56.75286 | -2.97491 | 13087 ft | 197 kts | 30° |
| 2026-04-26 14:07 | 56.76452 | -2.96238 | 13089 ft | 197 kts | 30° |
| 2026-04-26 14:08 | 56.77625 | -2.94936 | 13085 ft | 197 kts | 31° |
| 2026-04-26 14:08 | 56.78799 | -2.93628 | 13080 ft | 197 kts | 31° |
| 2026-04-26 14:08 | 56.79974 | -2.92328 | 13073 ft | 197 kts | 30° |
| 2026-04-26 14:08 | 56.81155 | -2.91050 | 13077 ft | 197 kts | 30° |
| 2026-04-26 14:09 | 56.81947 | -2.90221 | 13065 ft | 198 kts | 29° |
| 2026-04-26 14:09 | 56.83561 | -2.88605 | 13062 ft | 197 kts | 27° |
| 2026-04-26 14:09 | 56.84367 | -2.87843 | 13067 ft | 197 kts | 27° |
| 2026-04-26 14:09 | 56.85855 | -2.85967 | 13070 ft | 197 kts | 38° |
| 2026-04-26 14:10 | 56.86905 | -2.84340 | 13047 ft | 198 kts | 41° |
| 2026-04-26 14:10 | 56.87590 | -2.83196 | 13052 ft | 197 kts | 43° |
| 2026-04-26 14:10 | 56.88556 | -2.81448 | 13063 ft | 197 kts | 46° |
| 2026-04-26 14:10 | 56.89490 | -2.79613 | 13068 ft | 197 kts | 47° |
| 2026-04-26 14:11 | 56.91232 | -2.75724 | 13079 ft | 197 kts | 53° |
| 2026-04-26 14:11 | 56.92031 | -2.73678 | 13092 ft | 197 kts | 55° |
| 2026-04-26 14:11 | 56.92776 | -2.71590 | 13085 ft | 198 kts | 58° |
| 2026-04-26 14:12 | 56.93481 | -2.69423 | 13084 ft | 198 kts | 60° |
| 2026-04-26 14:12 | 56.94136 | -2.67211 | 13096 ft | 197 kts | 62° |
| 2026-04-26 14:12 | 56.94783 | -2.64988 | 13110 ft | 197 kts | 61° |
| 2026-04-26 14:12 | 56.95446 | -2.62789 | 13104 ft | 198 kts | 60° |
| 2026-04-26 14:13 | 56.96785 | -2.58392 | 13131 ft | 197 kts | 61° |
| 2026-04-26 14:13 | 56.97443 | -2.56185 | 13149 ft | 197 kts | 61° |
| 2026-04-26 14:13 | 56.98110 | -2.53983 | 13163 ft | 198 kts | 60° |
| 2026-04-26 14:14 | 56.98782 | -2.51822 | 13170 ft | 198 kts | 60° |
| 2026-04-26 14:14 | 56.99472 | -2.49642 | 13172 ft | 198 kts | 59° |
| 2026-04-26 14:14 | 57.00181 | -2.47475 | 13185 ft | 197 kts | 58° |
| 2026-04-26 14:14 | 57.00908 | -2.45332 | 13206 ft | 197 kts | 57° |
| 2026-04-26 14:15 | 57.01651 | -2.43210 | 13219 ft | 197 kts | 57° |
| 2026-04-26 14:15 | 57.02408 | -2.41118 | 13213 ft | 195 kts | 56° |
| 2026-04-26 14:15 | 57.03171 | -2.39046 | 13080 ft | 197 kts | 56° |
| 2026-04-26 14:15 | 57.03931 | -2.36957 | 13025 ft | 194 kts | 55° |
| 2026-04-26 14:16 | 57.04711 | -2.35000 | 12968 ft | 193 kts | 54° |
| 2026-04-26 14:16 | 57.05491 | -2.32954 | 12482 ft | 195 kts | 56° |
| 2026-04-26 14:16 | 57.06170 | -2.30834 | 12147 ft | 190 kts | 62° |
| 2026-04-26 14:16 | 57.06716 | -2.28631 | 11791 ft | 189 kts | 68° |
| 2026-04-26 14:17 | 57.07202 | -2.26390 | 11406 ft | 189 kts | 66° |
| 2026-04-26 14:17 | 57.07580 | -2.24076 | 11031 ft | 189 kts | 78° |
| 2026-04-26 14:17 | 57.07840 | -2.21724 | 10728 ft | 186 kts | 78° |
| 2026-04-26 14:17 | 57.08075 | -2.19391 | 10432 ft | 185 kts | 82° |
| 2026-04-26 14:18 | 57.08091 | -2.17022 | 10064 ft | 188 kts | 98° |
| 2026-04-26 14:18 | 57.07792 | -2.14722 | 9773 ft | 185 kts | 105° |
| 2026-04-26 14:18 | 57.07438 | -2.12473 | 9559 ft | 182 kts | 108° |
| 2026-04-26 14:18 | 57.06936 | -2.10342 | 9269 ft | 183 kts | 121° |
| 2026-04-26 14:19 | 57.05903 | -2.09204 | 8688 ft | 189 kts | 182° |
| 2026-04-26 14:19 | 57.04585 | -2.09478 | 8397 ft | 182 kts | 191° |
| 2026-04-26 14:19 | 57.03400 | -2.09914 | 8464 ft | 166 kts | 191° |
| 2026-04-26 14:19 | 57.02273 | -2.10249 | 8468 ft | 162 kts | 180° |
| 2026-04-26 14:20 | 57.01369 | -2.09153 | 8375 ft | 165 kts | 120° |
| 2026-04-26 14:20 | 57.01479 | -2.07004 | 7776 ft | 187 kts | 50° |
| 2026-04-26 14:20 | 57.02593 | -2.06112 | 7731 ft | 169 kts | 356° |
| 2026-04-26 14:20 | 57.03717 | -2.06802 | 7491 ft | 173 kts | 339° |
| 2026-04-26 14:21 | 57.04882 | -2.07611 | 7090 ft | 177 kts | 339° |
| 2026-04-26 14:21 | 57.05963 | -2.08289 | 7202 ft | 157 kts | 337° |
| 2026-04-26 14:21 | 57.06915 | -2.08957 | 7434 ft | 143 kts | 339° |
| 2026-04-26 14:21 | 57.07818 | -2.09615 | 7609 ft | 140 kts | 336° |
| 2026-04-26 14:22 | 57.08739 | -2.10299 | 7728 ft | 145 kts | 339° |
| 2026-04-26 14:22 | 57.09703 | -2.11042 | 7602 ft | 160 kts | 333° |
| 2026-04-26 14:22 | 57.10747 | -2.11978 | 7220 ft | 179 kts | 334° |
| 2026-04-26 14:22 | 57.11869 | -2.12972 | 6981 ft | 179 kts | 333° |
| 2026-04-26 14:23 | 57.13004 | -2.14000 | 6240 ft | 180 kts | 334° |
| 2026-04-26 14:23 | 57.14105 | -2.14915 | 5276 ft | 171 kts | 335° |
| 2026-04-26 14:23 | 57.15130 | -2.15802 | 4265 ft | 165 kts | 333° |
| 2026-04-26 14:23 | 57.16189 | -2.16699 | 3411 ft | 159 kts | 334° |
| 2026-04-26 14:24 | 57.17126 | -2.17459 | 2773 ft | 123 kts | 335° |
| 2026-04-26 14:24 | 57.17863 | -2.18067 | 2110 ft | 114 kts | 335° |
| 2026-04-26 14:24 | 57.18629 | -2.18660 | 1225 ft | 117 kts | 337° |
| 2026-04-26 14:24 | 57.19370 | -2.19171 | 535 ft | 106 kts | 340° |
| 2026-04-26 14:25 | 57.19982 | -2.19646 | 217 ft | 75 kts | 336° |
| 2026-04-26 14:25 | 57.20322 | -2.19902 | 207 ft | 43 kts | 338° |
| 2026-04-26 14:25 | 57.20525 | -2.19936 | 210 ft | 24 kts | 57° |
| 2026-04-26 14:25 | 57.20569 | -2.19741 | 206 ft | 10 kts | 138° |
| 2026-04-26 14:26 | 57.20518 | -2.19745 | 208 ft | 6 kts | 188° |
| 2026-04-26 14:26 | 57.20480 | -2.19755 | 205 ft | 6 kts | 186° |
| 2026-04-26 14:26 | 57.20433 | -2.19761 | 210 ft | 8 kts | 183° |
| 2026-04-26 14:26 | 57.20364 | -2.19758 | 207 ft | 12 kts | 143° |
| 2026-04-26 14:27 | 57.20344 | -2.19599 | 206 ft | 15 kts | 101° |
| 2026-04-26 14:27 | 57.20273 | -2.19473 | 206 ft | 14 kts | 152° |
| 2026-04-26 14:27 | 57.20232 | -2.19435 | 209 ft | 0 kts | 159° |